Time;durP1;ratioP1;P1;durP2;ratioP2;P2;SDS_P1;SDS_P2;PMS_P1;PMS_P2;Temp;Humidity;BMP_temperature;BMP_pressure;BME280_temperature;BME280_humidity;BME280_pressure;Samples;Min_cycle;Max_cycle;Signal;HPM_P1;HPM_P2
2023/02/14 00:02:12;;;;;;;20.38;11.63;;;2.50;91.80;;;;;;5014323;28;20331;-70
2023/02/14 00:04:42;;;;;;;19.10;12.85;;;2.50;92.10;;;;;;5014448;28;20657;-71
2023/02/14 00:07:10;;;;;;;22.48;13.30;;;2.50;92.00;;;;;;5033563;28;20197;-70
2023/02/14 00:09:37;;;;;;;26.88;13.00;;;2.50;91.80;;;;;;5033668;28;20252;-71
2023/02/14 00:12:06;;;;;;;18.13;11.75;;;2.40;91.40;;;;;;5034084;28;20230;-69
2023/02/14 00:17:19;;;;;;;19.80;12.10;;;2.30;91.80;;;;;;5014195;28;20326;-70
2023/02/14 00:19:46;;;;;;;20.50;13.20;;;2.30;92.10;;;;;;5013945;28;20273;-70
2023/02/14 00:22:13;;;;;;;20.67;12.88;;;2.30;92.30;;;;;;5014294;28;20244;-70
2023/02/14 00:24:40;;;;;;;19.63;14.30;;;2.40;92.30;;;;;;5013939;28;20234;-70
2023/02/14 00:27:08;;;;;;;19.63;13.13;;;2.40;92.20;;;;;;5031884;28;20304;-70
2023/02/14 00:29:35;;;;;;;21.35;14.05;;;2.40;92.00;;;;;;5033554;28;20272;-71
2023/02/14 00:32:03;;;;;;;18.15;11.80;;;2.40;91.70;;;;;;5015955;28;20570;-70
2023/02/14 00:34:35;;;;;;;18.20;12.30;;;2.40;91.80;;;;;;5013980;28;20194;-69
2023/02/14 00:37:02;;;;;;;15.80;12.50;;;2.40;92.00;;;;;;5030166;28;20311;-71
2023/02/14 00:39:29;;;;;;;18.15;11.90;;;2.40;91.50;;;;;;5033344;28;20283;-70
2023/02/14 00:41:57;;;;;;;17.92;12.35;;;2.40;91.50;;;;;;5017344;28;20191;-70
2023/02/14 00:44:24;;;;;;;27.05;12.43;;;2.40;91.60;;;;;;5013806;28;20202;-71
2023/02/14 00:46:51;;;;;;;20.42;12.95;;;2.40;91.60;;;;;;5023657;28;20194;-70
2023/02/14 00:49:18;;;;;;;26.73;13.20;;;2.40;91.70;;;;;;5051774;28;20268;-70
2023/02/14 00:51:47;;;;;;;18.63;10.88;;;2.30;91.40;;;;;;5053153;28;20236;-70
2023/02/14 00:54:14;;;;;;;14.55;10.77;;;2.30;91.50;;;;;;5039277;28;20657;-71
2023/02/14 00:56:41;;;;;;;22.73;13.75;;;2.40;91.60;;;;;;5032957;28;20206;-71
2023/02/14 00:59:09;;;;;;;21.27;12.65;;;2.30;91.60;;;;;;5021563;28;20681;-70
2023/02/14 01:01:36;;;;;;;15.43;10.40;;;2.30;91.50;;;;;;5012607;28;20218;-70
2023/02/14 01:04:03;;;;;;;19.15;12.43;;;2.40;91.40;;;;;;5022659;28;20377;-70
2023/02/14 01:06:30;;;;;;;18.08;11.32;;;2.40;91.20;;;;;;5032781;28;20195;-70
2023/02/14 01:08:59;;;;;;;19.00;12.52;;;2.40;91.50;;;;;;5024366;28;20598;-71
2023/02/14 01:11:27;;;;;;;17.02;11.77;;;2.40;91.60;;;;;;5012877;28;20195;-69
2023/02/14 01:13:56;;;;;;;17.75;11.10;;;2.40;91.10;;;;;;5020209;28;20206;-70
2023/02/14 01:16:25;;;;;;;16.00;10.15;;;2.30;91.00;;;;;;5032958;28;20323;-70
2023/02/14 01:18:53;;;;;;;18.85;10.82;;;2.20;91.30;;;;;;5025888;28;20230;-70
2023/02/14 01:21:22;;;;;;;20.35;11.98;;;2.20;91.50;;;;;;5013056;28;20749;-71
2023/02/14 01:23:52;;;;;;;19.25;11.95;;;2.10;91.80;;;;;;5018424;28;20195;-70
2023/02/14 01:26:26;;;;;;;21.42;11.48;;;2.10;91.80;;;;;;5032700;28;20194;-70
2023/02/14 01:28:53;;;;;;;20.98;11.00;;;2.10;91.60;;;;;;5029078;28;20194;-70
2023/02/14 01:31:23;;;;;;;20.98;11.90;;;2.10;91.90;;;;;;5031576;28;20554;-71
2023/02/14 01:33:51;;;;;;;21.27;11.95;;;2.10;91.80;;;;;;5024358;28;20195;-70
2023/02/14 01:36:21;;;;;;;19.50;12.45;;;2.20;91.40;;;;;;5012834;28;20218;-70
2023/02/14 01:38:50;;;;;;;22.33;13.25;;;2.10;91.70;;;;;;5019205;28;20244;-70
2023/02/14 01:41:17;;;;;;;20.42;12.07;;;2.00;91.80;;;;;;5030963;28;20274;-71
2023/02/14 01:44:01;;;;;;;23.23;11.95;;;2.00;91.80;;;;;;5025456;28;20195;-70
2023/02/14 01:46:30;;;;;;;18.33;11.45;;;2.00;91.70;;;;;;5012636;28;20193;-70
2023/02/14 01:49:06;;;;;;;19.05;11.75;;;2.00;91.70;;;;;;5019713;28;20197;-70
2023/02/14 01:51:34;;;;;;;26.35;12.45;;;2.00;91.50;;;;;;5031831;28;20670;-70
2023/02/14 01:54:03;;;;;;;15.57;9.90;;;1.90;91.40;;;;;;5024096;28;20281;-70
2023/02/14 01:56:36;;;;;;;20.10;11.60;;;1.90;92.00;;;;;;5012261;28;20190;-70
2023/02/14 01:59:08;;;;;;;36.38;12.15;;;1.90;92.00;;;;;;5018965;28;20261;-71
2023/02/14 02:01:35;;;;;;;18.45;10.80;;;1.80;91.50;;;;;;5031330;28;20735;-70
2023/02/14 02:04:06;;;;;;;19.02;11.02;;;1.70;92.20;;;;;;5025319;28;20194;-71
2023/02/14 02:06:37;;;;;;;22.50;10.68;;;1.60;92.60;;;;;;5012198;28;20205;-69
2023/02/14 02:09:12;;;;;;;26.30;10.75;;;1.50;92.10;;;;;;5018412;28;20185;-70
2023/02/14 02:11:40;;;;;;;13.23;10.20;;;1.50;92.20;;;;;;5031826;28;20186;-70
2023/02/14 02:14:14;;;;;;;10.65;8.23;;;1.50;92.00;;;;;;5025418;28;20699;-70
2023/02/14 02:17:16;;;;;;;16.02;9.98;;;1.50;92.00;;;;;;5012094;28;20293;-70
2023/02/14 02:20:27;;;;;;;21.25;11.23;;;1.50;92.00;;;;;;5022132;28;20628;-70
2023/02/14 02:23:44;;;;;;;18.55;9.13;;;1.40;91.60;;;;;;5031968;28;20197;-71
2023/02/14 02:26:44;;;;;;;15.77;10.02;;;1.30;92.00;;;;;;4951447;29;20267;-70
2023/02/14 02:30:05;;;;;;;14.90;9.70;;;1.20;92.30;;;;;;4938679;28;20647;-71
2023/02/14 02:33:03;;;;;;;16.10;9.45;;;1.10;92.50;;;;;;5028657;28;20221;-70
2023/02/14 02:36:07;;;;;;;14.20;9.30;;;1.10;92.80;;;;;;5031690;28;20635;-71
2023/02/14 02:38:52;;;;;;;15.30;9.73;;;1.10;92.70;;;;;;5010602;28;20187;-71
2023/02/14 02:41:30;;;;;;;14.77;10.82;;;1.20;92.50;;;;;;5012731;28;20236;-70
2023/02/14 02:44:09;;;;;;;20.30;10.63;;;1.20;92.40;;;;;;5011932;28;20193;-72
2023/02/14 02:46:48;;;;;;;13.73;9.20;;;1.10;92.50;;;;;;5023642;28;20669;-71
2023/02/14 02:55:19;;;;;;;13.60;9.02;;;1.00;92.40;;;;;;5020531;28;20201;-70
2023/02/14 02:57:47;;;;;;;17.27;9.55;;;1.10;92.30;;;;;;5015749;28;20256;-70
2023/02/14 03:00:16;;;;;;;14.88;9.23;;;1.20;92.10;;;;;;5028481;28;20259;-70
2023/02/14 03:05:35;;;;;;;14.75;9.50;;;1.20;91.50;;;;;;5015519;28;20642;-70
2023/02/14 03:08:05;;;;;;;15.25;8.65;;;1.20;91.10;;;;;;5027121;28;20195;-70
2023/02/14 03:10:47;;;;;;;11.80;8.15;;;1.10;91.20;;;;;;5027209;28;20198;-71
2023/02/14 03:13:39;;;;;;;11.98;9.18;;;1.00;91.50;;;;;;5015453;28;20209;-70
2023/02/14 03:16:24;;;;;;;10.73;8.80;;;1.00;91.60;;;;;;5026679;28;20182;-70
2023/02/14 03:22:05;;;;;;;13.55;8.35;;;1.00;91.40;;;;;;5015978;28;20201;-70
2023/02/14 03:24:44;;;;;;;13.82;8.55;;;1.00;91.30;;;;;;5015434;28;20186;-71
2023/02/14 03:27:16;;;;;;;11.18;8.23;;;1.10;91.10;;;;;;5034274;28;20580;-71
2023/02/14 03:29:54;;;;;;;16.63;9.25;;;1.10;90.30;;;;;;5034067;28;20208;-71
2023/02/14 03:32:30;;;;;;;13.40;8.23;;;1.10;90.50;;;;;;5015134;28;20236;-71
2023/02/14 03:35:04;;;;;;;15.93;9.05;;;1.10;90.70;;;;;;5015868;28;20194;-70
2023/02/14 03:37:35;;;;;;;17.13;9.00;;;1.10;90.80;;;;;;5034979;28;20180;-70
2023/02/14 03:40:08;;;;;;;12.00;7.40;;;1.00;90.70;;;;;;5031997;28;20209;-70
2023/02/14 03:42:42;;;;;;;11.85;9.07;;;1.00;90.70;;;;;;5015251;28;20235;-70
2023/02/14 03:45:18;;;;;;;15.02;8.52;;;1.00;90.80;;;;;;5017392;28;20187;-70
2023/02/14 03:47:46;;;;;;;13.15;8.10;;;1.00;90.70;;;;;;5034656;28;20729;-70
2023/02/14 03:50:18;;;;;;;13.45;8.75;;;1.00;90.90;;;;;;5027862;28;20252;-71
2023/02/14 03:52:48;;;;;;;10.38;8.40;;;1.10;90.50;;;;;;5015173;28;20202;-71
2023/02/14 03:55:20;;;;;;;10.00;8.13;;;1.10;89.40;;;;;;5019778;28;20188;-71
2023/02/14 03:57:55;;;;;;;10.80;7.57;;;1.00;89.70;;;;;;5033787;28;20201;-71
2023/02/14 04:00:23;;;;;;;16.42;9.98;;;1.00;90.00;;;;;;5026623;28;20304;-71
2023/02/14 04:02:56;;;;;;;14.15;9.57;;;0.90;90.10;;;;;;5013918;28;20202;-71
2023/02/14 04:05:27;;;;;;;12.13;8.00;;;0.90;90.50;;;;;;5020815;28;20190;-71
2023/02/14 04:07:57;;;;;;;14.10;9.55;;;0.90;90.40;;;;;;5034401;28;20211;-70
2023/02/14 04:10:25;;;;;;;18.58;9.52;;;0.90;90.50;;;;;;5023734;28;20708;-71
2023/02/14 04:12:54;;;;;;;16.17;9.02;;;0.90;90.50;;;;;;5014415;28;20272;-70
2023/02/14 04:15:21;;;;;;;12.98;9.60;;;0.90;90.90;;;;;;5022572;28;20185;-71
2023/02/14 04:20:33;;;;;;;11.73;8.35;;;0.90;91.00;;;;;;5022696;28;20694;-70
2023/02/14 04:23:01;;;;;;;13.15;8.45;;;0.90;90.60;;;;;;5014277;28;20242;-70
2023/02/14 04:25:28;;;;;;;12.00;8.20;;;1.00;90.60;;;;;;5023144;28;20660;-71
2023/02/14 04:27:57;;;;;;;13.25;9.10;;;1.00;90.60;;;;;;5034017;28;20196;-70
2023/02/14 04:30:24;;;;;;;15.07;8.98;;;0.90;90.70;;;;;;5024224;28;20261;-71
2023/02/14 04:32:51;;;;;;;12.98;7.75;;;0.90;90.90;;;;;;5013906;28;20203;-71
2023/02/14 04:35:18;;;;;;;15.60;8.98;;;0.90;90.90;;;;;;5021317;28;20295;-71
2023/02/14 04:37:45;;;;;;;13.70;9.00;;;0.90;90.90;;;;;;5033780;28;20193;-70
2023/02/14 04:40:16;;;;;;;11.85;8.50;;;0.80;91.10;;;;;;5025563;28;20226;-70
2023/02/14 04:42:43;;;;;;;13.43;8.73;;;0.80;91.10;;;;;;5013814;28;20197;-70
2023/02/14 04:45:12;;;;;;;12.63;8.40;;;0.80;91.40;;;;;;5019586;28;20186;-70
2023/02/14 04:47:40;;;;;;;16.02;9.15;;;0.70;91.00;;;;;;5032930;28;20243;-71
2023/02/14 04:50:07;;;;;;;16.60;9.75;;;0.60;91.00;;;;;;5026818;28;20280;-71
2023/02/14 04:52:35;;;;;;;11.00;8.18;;;0.60;91.30;;;;;;5013703;28;20198;-71
2023/02/14 04:55:03;;;;;;;15.52;9.30;;;0.60;91.40;;;;;;5017797;28;20261;-70
2023/02/14 04:57:30;;;;;;;13.50;8.13;;;0.60;91.40;;;;;;5032426;28;20221;-72
2023/02/14 04:59:57;;;;;;;14.38;9.77;;;0.60;91.30;;;;;;5013290;28;20218;-70
2023/02/14 05:02:26;;;;;;;13.52;9.23;;;0.60;91.40;;;;;;5013586;28;20656;-70
2023/02/14 05:04:53;;;;;;;15.00;8.30;;;0.60;91.40;;;;;;5032388;28;20195;-70
2023/02/14 05:07:20;;;;;;;12.63;7.90;;;0.50;91.50;;;;;;5032973;28;20190;-70
2023/02/14 05:09:47;;;;;;;15.25;9.55;;;0.50;91.70;;;;;;5014542;28;20212;-70
2023/02/14 05:12:16;;;;;;;14.95;9.52;;;0.40;91.70;;;;;;5013129;28;20200;-70
2023/02/14 05:14:43;;;;;;;17.20;9.90;;;0.50;91.80;;;;;;5029236;28;20196;-71
2023/02/14 05:17:10;;;;;;;11.60;8.07;;;0.50;91.60;;;;;;5033081;28;20192;-71
2023/02/14 05:19:39;;;;;;;22.02;8.52;;;0.40;91.40;;;;;;5017261;28;20221;-71
2023/02/14 05:22:07;;;;;;;15.57;9.27;;;0.30;91.50;;;;;;5013333;28;20258;-71
2023/02/14 05:24:35;;;;;;;10.68;7.18;;;0.30;91.60;;;;;;5026746;28;20190;-71
2023/02/14 05:27:02;;;;;;;11.93;8.00;;;0.20;91.40;;;;;;5032665;28;20188;-70
2023/02/14 05:29:29;;;;;;;10.20;9.05;;;0.20;91.30;;;;;;5019383;28;20188;-71
2023/02/14 05:31:57;;;;;;;12.60;8.50;;;0.20;91.30;;;;;;5030259;28;20638;-70
2023/02/14 05:34:24;;;;;;;14.43;8.45;;;0.10;91.10;;;;;;5021289;28;20251;-70
2023/02/14 05:36:53;;;;;;;12.77;8.70;;;0.10;91.30;;;;;;5012903;28;20212;-71
2023/02/14 05:39:20;;;;;;;14.55;8.30;;;0.20;91.20;;;;;;5022548;28;20196;-70
2023/02/14 05:41:48;;;;;;;11.45;8.30;;;0.20;91.00;;;;;;5020163;28;20289;-70
2023/02/14 05:44:16;;;;;;;12.38;8.40;;;0.20;90.60;;;;;;5052108;28;20713;-69
2023/02/14 05:46:43;;;;;;;13.75;8.68;;;0.20;90.70;;;;;;5052228;28;20199;-70
2023/02/14 05:49:10;;;;;;;15.65;8.57;;;0.30;90.50;;;;;;5044107;28;20198;-70
2023/02/14 05:51:37;;;;;;;11.93;8.77;;;0.30;89.60;;;;;;5023994;28;20239;-71
2023/02/14 05:54:06;;;;;;;12.25;8.07;;;0.30;89.70;;;;;;5026462;28;20698;-70
2023/02/14 05:56:33;;;;;;;13.52;8.50;;;0.20;90.00;;;;;;5012796;28;20281;-70
2023/02/14 05:59:00;;;;;;;12.10;7.72;;;0.20;89.90;;;;;;5016794;28;20183;-71
2023/02/14 06:01:27;;;;;;;13.70;9.25;;;0.20;89.40;;;;;;5031430;28;20315;-71
2023/02/14 06:03:55;;;;;;;13.40;8.65;;;0.30;89.30;;;;;;5029165;28;20243;-70
2023/02/14 06:06:22;;;;;;;14.15;8.77;;;0.20;89.60;;;;;;5021332;28;20231;-71
2023/02/14 06:08:50;;;;;;;16.30;10.38;;;0.20;89.80;;;;;;5030275;28;20704;-70
2023/02/14 06:11:18;;;;;;;10.63;7.60;;;0.20;90.10;;;;;;5023498;28;20615;-70
2023/02/14 06:13:46;;;;;;;19.15;8.85;;;0.20;90.20;;;;;;5031699;28;20559;-70
2023/02/14 06:16:13;;;;;;;11.20;7.05;;;0.30;90.30;;;;;;5023125;28;20238;-70
2023/02/14 06:18:40;;;;;;;10.65;7.78;;;0.30;90.20;;;;;;5032158;28;20195;-70
2023/02/14 06:21:07;;;;;;;13.18;7.70;;;0.30;90.40;;;;;;5012625;28;20224;-70
2023/02/14 06:23:35;;;;;;;10.25;8.35;;;0.40;90.50;;;;;;5018809;28;20185;-70
2023/02/14 06:26:02;;;;;;;12.65;8.43;;;0.40;90.40;;;;;;5023737;28;20240;-70
2023/02/14 06:28:31;;;;;;;18.40;8.80;;;0.40;90.30;;;;;;5030182;28;20220;-71
2023/02/14 06:30:58;;;;;;;21.92;9.55;;;0.40;90.30;;;;;;5023015;28;20190;-70
2023/02/14 06:33:25;;;;;;;12.60;8.35;;;0.40;90.30;;;;;;5015931;28;20236;-70
2023/02/14 06:35:54;;;;;;;16.55;8.48;;;0.40;90.20;;;;;;5031810;28;20647;-70
2023/02/14 06:38:21;;;;;;;11.65;8.45;;;0.40;90.20;;;;;;5029355;28;20251;-70
2023/02/14 06:40:48;;;;;;;12.52;8.85;;;0.40;90.20;;;;;;5012119;28;20282;-71
2023/02/14 06:43:15;;;;;;;15.65;9.95;;;0.50;90.20;;;;;;5017476;28;20251;-71
2023/02/14 06:45:43;;;;;;;13.23;8.57;;;0.50;90.00;;;;;;5031413;28;20252;-71
2023/02/14 06:48:11;;;;;;;13.80;8.25;;;0.40;89.90;;;;;;5026162;28;20181;-70
2023/02/14 06:50:38;;;;;;;15.73;8.95;;;0.40;89.90;;;;;;5011961;28;20188;-71
2023/02/14 06:53:05;;;;;;;13.18;8.45;;;0.40;89.50;;;;;;5015337;28;20185;-70
2023/02/14 06:55:32;;;;;;;14.27;8.30;;;0.40;89.60;;;;;;5031665;28;20555;-72
2023/02/14 06:57:59;;;;;;;12.40;9.02;;;0.40;89.60;;;;;;5028880;28;20199;-71
2023/02/14 07:00:27;;;;;;;15.02;8.43;;;0.30;89.10;;;;;;5022124;28;20590;-71
2023/02/14 07:02:55;;;;;;;13.90;8.35;;;0.40;89.20;;;;;;5030889;28;20192;-70
2023/02/14 07:05:23;;;;;;;15.50;8.32;;;0.40;89.10;;;;;;5031881;28;20230;-71
2023/02/14 07:07:49;;;;;;;17.98;9.15;;;0.40;88.80;;;;;;5032027;28;20578;-71
2023/02/14 07:10:17;;;;;;;13.95;9.35;;;0.40;89.10;;;;;;5025970;28;20220;-74
2023/02/14 07:12:44;;;;;;;13.93;10.18;;;0.40;89.60;;;;;;5028870;28;20279;-74
2023/02/14 07:15:12;;;;;;;16.45;10.70;;;0.30;89.60;;;;;;5029478;28;20642;-70
2023/02/14 07:17:40;;;;;;;17.13;10.75;;;0.40;89.80;;;;;;5030402;28;20192;-70
2023/02/14 07:20:10;;;;;;;22.25;12.75;;;0.40;89.80;;;;;;5020211;28;20658;-70
2023/02/14 07:22:38;;;;;;;28.13;16.77;;;0.40;89.90;;;;;;5029923;28;20195;-71
2023/02/14 07:25:07;;;;;;;18.48;9.65;;;0.40;90.10;;;;;;5016762;28;20186;-70
2023/02/14 07:27:34;;;;;;;38.55;18.95;;;0.40;89.90;;;;;;5017362;28;20193;-72
2023/02/14 07:30:02;;;;;;;26.00;16.35;;;0.40;89.60;;;;;;5029483;28;20299;-70
2023/02/14 07:32:30;;;;;;;18.90;11.68;;;0.40;90.00;;;;;;5022870;28;20199;-71
2023/02/14 07:34:58;;;;;;;22.60;12.20;;;0.40;90.00;;;;;;5011636;28;20610;-71
2023/02/14 07:37:27;;;;;;;22.95;12.40;;;0.40;89.80;;;;;;5011192;28;20247;-73
2023/02/14 07:39:54;;;;;;;22.23;12.88;;;0.50;90.00;;;;;;5032420;28;20201;-70
2023/02/14 07:42:21;;;;;;;14.60;10.32;;;0.50;90.00;;;;;;5033199;28;20334;-70
2023/02/14 07:44:48;;;;;;;21.13;11.13;;;0.50;90.00;;;;;;5022413;28;20247;-70
2023/02/14 07:47:15;;;;;;;16.52;10.98;;;0.60;90.20;;;;;;5015467;28;20318;-70
2023/02/14 07:49:42;;;;;;;19.58;11.38;;;0.60;90.20;;;;;;5014695;28;20197;-70
2023/02/14 07:52:09;;;;;;;18.15;10.65;;;0.60;90.30;;;;;;5014855;28;20648;-70
2023/02/14 07:54:38;;;;;;;21.75;10.77;;;0.70;90.10;;;;;;5014601;28;20654;-71
2023/02/14 07:57:05;;;;;;;18.33;9.32;;;0.70;89.70;;;;;;5020570;28;20192;-71
2023/02/14 07:59:32;;;;;;;21.35;11.38;;;0.70;89.90;;;;;;5034300;28;20700;-70
2023/02/14 08:01:59;;;;;;;15.13;9.60;;;0.80;89.60;;;;;;5034471;28;20319;-72
2023/02/14 08:04:26;;;;;;;18.63;12.30;;;0.70;90.10;;;;;;5034541;28;20723;-71
2023/02/14 08:06:53;;;;;;;18.45;10.73;;;0.70;89.90;;;;;;5034751;28;20621;-70
2023/02/14 08:09:24;;;;;;;21.33;12.85;;;0.70;90.10;;;;;;5034421;28;20672;-70
2023/02/14 08:14:38;;;;;;;18.23;9.80;;;0.90;90.30;;;;;;5034751;28;20265;-70
2023/02/14 08:17:07;;;;;;;14.75;9.98;;;0.90;90.20;;;;;;5034545;28;20289;-70
2023/02/14 08:19:34;;;;;;;17.90;12.05;;;1.00;90.20;;;;;;5034662;28;20208;-71
2023/02/14 08:22:01;;;;;;;18.55;11.80;;;0.90;90.10;;;;;;5034553;28;20264;-70
2023/02/14 08:24:28;;;;;;;18.20;11.50;;;1.00;90.10;;;;;;5034287;28;20229;-70
2023/02/14 08:26:56;;;;;;;19.50;12.68;;;1.00;89.40;;;;;;5034309;28;20225;-71
2023/02/14 08:29:24;;;;;;;24.17;11.75;;;1.00;89.60;;;;;;5034348;28;20229;-70
2023/02/14 08:31:51;;;;;;;17.17;10.80;;;1.10;89.30;;;;;;5034186;28;20227;-71
2023/02/14 08:34:18;;;;;;;16.00;10.55;;;1.10;89.80;;;;;;5033920;28;20201;-71
2023/02/14 08:36:46;;;;;;;18.80;11.93;;;1.10;88.40;;;;;;5034207;28;20205;-71
2023/02/14 08:39:13;;;;;;;17.25;11.60;;;1.20;88.80;;;;;;5034085;28;20193;-70
2023/02/14 08:41:40;;;;;;;16.85;11.13;;;1.20;89.00;;;;;;5034079;28;20597;-71
2023/02/14 08:44:08;;;;;;;16.52;11.05;;;1.30;89.00;;;;;;5034071;28;20195;-71
2023/02/14 08:46:36;;;;;;;20.30;11.68;;;1.40;89.60;;;;;;5033979;28;20721;-71
2023/02/14 08:49:05;;;;;;;23.35;12.93;;;1.50;89.20;;;;;;5033456;28;20261;-71
2023/02/14 08:51:33;;;;;;;25.88;13.40;;;1.60;89.20;;;;;;5033431;28;20233;-70
2023/02/14 08:54:00;;;;;;;22.67;13.38;;;1.80;89.10;;;;;;5033527;28;20248;-71
2023/02/14 08:56:27;;;;;;;18.65;11.65;;;1.90;89.10;;;;;;5033724;28;20244;-71
2023/02/14 08:58:54;;;;;;;18.33;10.88;;;2.00;89.50;;;;;;5033880;28;20256;-71
2023/02/14 09:01:23;;;;;;;18.45;11.57;;;2.20;88.80;;;;;;5033127;28;20337;-69
2023/02/14 09:03:50;;;;;;;19.17;11.25;;;2.30;88.30;;;;;;5033377;28;20699;-71
2023/02/14 09:06:17;;;;;;;18.60;11.35;;;2.50;87.50;;;;;;5033650;28;20191;-71
2023/02/14 09:08:45;;;;;;;25.70;11.20;;;2.70;87.10;;;;;;5033408;28;20193;-70
2023/02/14 09:11:13;;;;;;;17.98;11.68;;;3.00;86.50;;;;;;5033404;28;20257;-71
2023/02/14 09:13:41;;;;;;;15.60;10.15;;;3.20;85.30;;;;;;5033208;28;20226;-71
2023/02/14 09:16:09;;;;;;;15.60;11.88;;;3.30;85.20;;;;;;5033130;28;20278;-69
2023/02/14 09:18:38;;;;;;;17.70;11.77;;;3.40;84.50;;;;;;5033468;28;20191;-71
2023/02/14 09:21:08;;;;;;;15.90;12.10;;;3.60;83.70;;;;;;5032793;28;20317;-73
2023/02/14 09:23:35;;;;;;;38.72;13.45;;;3.70;83.30;;;;;;5033241;28;20202;-70
2023/02/14 09:26:04;;;;;;;18.45;12.70;;;4.10;81.90;;;;;;5032921;28;20689;-70
2023/02/14 09:28:31;;;;;;;16.25;11.68;;;4.50;80.60;;;;;;5032967;28;20282;-71
2023/02/14 09:30:59;;;;;;;21.40;12.25;;;4.90;80.30;;;;;;5032577;28;20281;-72
2023/02/14 09:33:28;;;;;;;18.95;12.60;;;5.40;79.20;;;;;;5033175;28;20282;-71
2023/02/14 09:38:42;;;;;;;33.67;12.18;;;7.40;78.60;;;;;;5033008;28;20198;-70
2023/02/14 09:41:10;;;;;;;15.15;10.00;;;8.80;74.00;;;;;;5032946;28;20313;-71
2023/02/14 09:43:44;;;;;;;14.60;10.85;;;9.80;67.40;;;;;;5032697;28;20627;-70
2023/02/14 09:46:15;;;;;;;14.55;11.23;;;10.70;63.50;;;;;;5032789;28;20281;-71
2023/02/14 09:48:46;;;;;;;14.65;11.52;;;11.70;59.30;;;;;;5032635;28;20689;-70
2023/02/14 09:51:17;;;;;;;15.45;10.82;;;12.50;56.70;;;;;;5032878;28;20286;-70
2023/02/14 09:53:47;;;;;;;19.05;11.20;;;13.20;54.10;;;;;;5032478;28;20191;-70
2023/02/14 09:56:20;;;;;;;12.50;10.30;;;13.90;52.10;;;;;;5032595;28;20274;-71
2023/02/14 09:58:57;;;;;;;12.90;10.30;;;14.50;49.90;;;;;;5032641;28;20187;-71
2023/02/14 10:01:29;;;;;;;13.43;10.55;;;15.00;47.20;;;;;;5031537;28;20333;-71
2023/02/14 10:04:21;;;;;;;10.50;9.10;;;15.50;46.20;;;;;;5032554;28;20241;-71
2023/02/14 10:06:58;;;;;;;13.80;8.90;;;16.00;45.10;;;;;;5032554;28;20441;-71
2023/02/14 10:09:41;;;;;;;11.50;9.00;;;16.50;44.30;;;;;;5032515;28;20445;-71
2023/02/14 10:12:14;;;;;;;10.07;8.37;;;16.90;43.00;;;;;;5032374;28;20488;-70
2023/02/14 10:14:41;;;;;;;14.47;9.00;;;17.20;41.10;;;;;;5032298;28;20473;-70
2023/02/14 10:17:15;;;;;;;9.53;8.63;;;17.50;40.40;;;;;;5032443;28;20473;-71
2023/02/14 10:19:48;;;;;;;20.93;9.30;;;17.70;40.00;;;;;;5032333;28;20472;-71
2023/02/14 10:22:18;;;;;;;12.73;9.30;;;18.00;39.00;;;;;;5031869;28;20487;-71
2023/02/14 10:24:50;;;;;;;15.67;8.17;;;18.20;39.20;;;;;;5032511;28;20499;-71
2023/02/14 10:27:29;;;;;;;11.77;10.53;;;18.50;38.90;;;;;;5031974;28;20438;-71
2023/02/14 10:29:56;;;;;;;10.60;8.77;;;18.80;37.70;;;;;;5032190;28;20469;-71
2023/02/14 10:32:29;;;;;;;8.90;8.00;;;18.90;36.70;;;;;;5032250;28;20520;-71
2023/02/14 10:35:00;;;;;;;10.67;9.63;;;19.10;36.50;;;;;;5032407;28;20529;-71
2023/02/14 10:37:41;;;;;;;12.47;8.50;;;19.30;35.70;;;;;;5031679;28;20533;-71
2023/02/14 10:40:32;;;;;;;10.60;9.50;;;19.40;36.10;;;;;;5031999;28;20474;-71
2023/02/14 10:43:06;;;;;;;10.70;9.07;;;19.60;34.80;;;;;;5031895;28;20491;-70
2023/02/14 10:45:39;;;;;;;8.60;7.70;;;19.80;35.50;;;;;;5032365;28;20646;-70
2023/02/14 10:48:15;;;;;;;10.40;8.57;;;20.00;35.70;;;;;;5032357;28;20438;-71
2023/02/14 10:50:50;;;;;;;10.37;9.37;;;20.30;35.50;;;;;;5032034;28;20469;-70
2023/02/14 10:53:25;;;;;;;11.50;8.53;;;20.50;34.90;;;;;;5031926;28;20540;-70
2023/02/14 10:55:58;;;;;;;9.37;8.37;;;20.70;33.70;;;;;;5032122;28;20512;-70
2023/02/14 10:58:28;;;;;;;13.30;8.90;;;20.90;33.50;;;;;;5031919;28;20441;-71
2023/02/14 11:01:01;;;;;;;9.80;8.80;;;21.10;32.20;;;;;;5031526;28;20497;-71
2023/02/14 11:03:29;;;;;;;10.50;9.00;;;21.20;32.60;;;;;;5031978;28;20484;-70
2023/02/14 11:05:56;;;;;;;9.37;8.47;;;21.40;32.40;;;;;;5031711;28;20478;-72
2023/02/14 11:08:28;;;;;;;10.10;8.30;;;21.60;32.20;;;;;;5032130;28;20532;-71
2023/02/14 11:11:01;;;;;;;10.57;8.17;;;21.80;31.30;;;;;;5032273;28;20530;-72
2023/02/14 11:13:35;;;;;;;9.17;8.27;;;21.90;30.90;;;;;;5015252;28;20836;-71
2023/02/14 11:16:05;;;;;;;10.90;8.60;;;21.90;31.00;;;;;;5015890;28;20445;-70
2023/02/14 11:18:34;;;;;;;12.53;9.20;;;22.00;31.40;;;;;;5047207;28;20430;-70
2023/02/14 11:21:03;;;;;;;10.40;9.13;;;22.20;30.50;;;;;;5047160;28;20527;-71
2023/02/14 11:23:38;;;;;;;11.47;8.00;;;22.30;30.20;;;;;;5054018;28;20537;-72
2023/02/14 11:26:09;;;;;;;13.73;10.50;;;22.40;30.20;;;;;;5054054;28;20471;-71
2023/02/14 11:28:51;;;;;;;12.67;9.73;;;22.40;30.30;;;;;;5014697;28;20447;-71
2023/02/14 11:31:27;;;;;;;14.83;9.83;;;22.50;29.50;;;;;;5033715;28;20473;-70
2023/02/14 11:33:55;;;;;;;10.70;9.50;;;22.70;29.90;;;;;;5034685;28;20936;-70
2023/02/14 11:36:27;;;;;;;11.57;9.17;;;22.70;29.50;;;;;;5049100;28;20451;-71
2023/02/14 11:39:05;;;;;;;11.00;9.10;;;22.80;28.50;;;;;;5046022;28;20531;-71
2023/02/14 11:41:48;;;;;;;14.43;8.33;;;22.90;28.50;;;;;;5052914;28;20567;-70
2023/02/14 11:44:21;;;;;;;13.37;7.93;;;23.00;28.10;;;;;;5054502;28;20429;-74
2023/02/14 11:49:36;;;;;;;11.27;9.13;;;23.20;28.30;;;;;;5054668;28;20428;-71
2023/02/14 11:52:13;;;;;;;11.37;9.30;;;23.20;27.40;;;;;;5054572;28;20951;-71
2023/02/14 11:54:43;;;;;;;9.50;8.20;;;23.20;27.90;;;;;;5054452;28;20516;-70
2023/02/14 11:57:17;;;;;;;11.00;8.47;;;23.20;27.50;;;;;;5054555;28;20485;-71
2023/02/14 11:59:52;;;;;;;9.33;7.80;;;23.40;27.50;;;;;;5054413;28;20516;-70
2023/02/14 12:02:36;;;;;;;10.40;8.17;;;23.30;27.60;;;;;;5053958;28;20834;-71
2023/02/14 12:05:05;;;;;;;9.63;8.03;;;23.20;27.50;;;;;;5054065;28;20447;-70
2023/02/14 12:07:35;;;;;;;8.10;7.30;;;23.20;27.60;;;;;;5054352;28;20475;-70
2023/02/14 12:10:27;;;;;;;10.47;7.90;;;23.20;27.00;;;;;;5054296;28;20536;-72
2023/02/14 12:12:58;;;;;;;7.57;6.73;;;23.20;26.80;;;;;;5054430;28;20433;-70
2023/02/14 12:15:35;;;;;;;8.40;6.30;;;23.20;27.40;;;;;;5054418;28;20828;-70
2023/02/14 12:18:28;;;;;;;8.03;6.53;;;23.30;27.00;;;;;;5054375;28;20872;-70
2023/02/14 12:21:00;;;;;;;7.90;7.10;;;23.40;26.60;;;;;;5054207;28;20472;-72
2023/02/14 12:23:36;;;;;;;9.00;7.13;;;23.50;27.30;;;;;;5053386;28;20477;-71
2023/02/14 12:26:11;;;;;;;8.30;7.00;;;23.40;27.00;;;;;;5053983;28;20440;-71
2023/02/14 12:28:45;;;;;;;8.00;6.07;;;23.40;27.10;;;;;;5053941;28;20519;-71
2023/02/14 12:31:14;;;;;;;7.57;6.30;;;23.40;26.80;;;;;;5054038;28;20471;-70
2023/02/14 12:33:41;;;;;;;7.43;6.73;;;23.50;26.90;;;;;;5053810;28;20447;-71
2023/02/14 12:36:14;;;;;;;7.13;6.20;;;23.60;26.80;;;;;;5053876;28;20534;-70
2023/02/14 12:38:50;;;;;;;6.77;6.07;;;23.50;26.60;;;;;;5053975;28;20516;-71
2023/02/14 12:41:28;;;;;;;10.07;7.00;;;23.30;26.80;;;;;;5054607;28;20895;-70
2023/02/14 12:43:56;;;;;;;13.37;7.90;;;23.30;26.70;;;;;;5053852;28;20532;-72
2023/02/14 12:46:40;;;;;;;6.60;6.00;;;23.30;26.50;;;;;;5053483;28;20528;-71
2023/02/14 12:49:55;;;;;;;8.67;5.70;;;23.20;26.30;;;;;;5053614;28;20855;-70
2023/02/14 12:52:41;;;;;;;9.73;7.40;;;23.10;26.50;;;;;;5011506;28;20443;-70
2023/02/14 12:55:25;;;;;;;8.70;6.00;;;23.10;26.60;;;;;;5011811;28;20477;-71
2023/02/14 12:57:59;;;;;;;9.10;6.03;;;23.10;26.90;;;;;;5040581;28;20476;-70
2023/02/14 13:00:37;;;;;;;7.30;6.60;;;23.10;26.50;;;;;;5053391;28;20459;-70
2023/02/14 13:03:30;;;;;;;8.50;6.23;;;22.90;26.80;;;;;;5053416;28;20575;-70
2023/02/14 13:06:04;;;;;;;7.57;6.80;;;22.80;26.80;;;;;;5053264;28;20437;-70
2023/02/14 13:08:46;;;;;;;8.60;7.80;;;22.70;26.50;;;;;;5053440;28;20908;-70
2023/02/14 13:11:24;;;;;;;9.93;7.40;;;22.60;26.80;;;;;;5053362;28;21010;-72
2023/02/14 13:14:03;;;;;;;8.33;7.40;;;22.50;26.60;;;;;;5053205;28;20447;-70
2023/02/14 13:16:47;;;;;;;8.07;7.00;;;22.40;26.40;;;;;;5052951;28;20772;-70
2023/02/14 13:19:24;;;;;;;8.10;7.17;;;22.20;26.50;;;;;;5053225;28;20441;-70
2023/02/14 13:21:52;;;;;;;8.20;6.73;;;22.10;26.40;;;;;;5052838;28;20958;-70
2023/02/14 13:24:23;;;;;;;12.80;7.27;;;22.00;26.70;;;;;;5052948;28;20495;-70
2023/02/14 13:26:54;;;;;;;7.70;5.60;;;21.90;26.50;;;;;;5052812;28;20452;-70
2023/02/14 13:29:26;;;;;;;7.63;6.83;;;21.80;26.50;;;;;;5053288;28;20535;-70